Time;durP1;ratioP1;P1;durP2;ratioP2;P2;SDS_P1;SDS_P2;PMS_P1;PMS_P2;Temp;Humidity;BMP_temperature;BMP_pressure;BME280_temperature;BME280_humidity;BME280_pressure;Samples;Min_cycle;Max_cycle;Signal;HPM_P1;HPM_P2
2021/11/09 00:01:09;;;;;;;19.97;13.07;;;2.00;99.90;;;;;;5047555;28;21068;-63
2021/11/09 00:03:38;;;;;;;15.35;11.60;;;1.90;99.90;;;;;;5049828;28;20535;-68
2021/11/09 00:06:13;;;;;;;18.27;11.30;;;1.90;99.90;;;;;;5052923;28;20229;-66
2021/11/09 00:08:43;;;;;;;19.97;11.20;;;1.90;99.90;;;;;;5052626;28;20552;-65
2021/11/09 00:11:10;;;;;;;20.33;11.40;;;1.90;99.90;;;;;;5052289;28;20450;-65
2021/11/09 00:13:37;;;;;;;19.60;13.53;;;1.90;99.90;;;;;;5052947;28;20968;-65
2021/11/09 00:16:06;;;;;;;24.23;14.53;;;1.80;99.90;;;;;;5052770;28;20539;-65
2021/11/09 00:18:33;;;;;;;17.30;12.83;;;1.90;99.90;;;;;;5052488;28;20635;-65
2021/11/09 00:21:01;;;;;;;20.10;15.77;;;1.80;99.90;;;;;;5052883;28;21056;-65
2021/11/09 00:23:28;;;;;;;19.10;12.60;;;1.70;99.90;;;;;;5052515;28;20455;-66
2021/11/09 00:25:56;;;;;;;17.40;12.17;;;1.70;99.90;;;;;;5052710;28;21081;-65
2021/11/09 00:28:23;;;;;;;18.50;12.90;;;1.70;99.90;;;;;;5051982;28;20941;-65
2021/11/09 00:30:49;;;;;;;17.95;11.20;;;1.70;99.90;;;;;;5052562;28;20453;-64
2021/11/09 00:33:18;;;;;;;15.33;11.77;;;1.60;99.90;;;;;;5052321;28;20227;-64
2021/11/09 00:35:45;;;;;;;19.47;13.90;;;1.60;99.90;;;;;;5052491;28;20511;-66
2021/11/09 00:38:13;;;;;;;20.20;13.70;;;1.60;99.90;;;;;;5052092;28;20813;-64
2021/11/09 00:40:42;;;;;;;22.50;13.57;;;1.70;99.90;;;;;;5052624;28;20444;-64
2021/11/09 00:43:10;;;;;;;17.50;11.63;;;1.80;99.90;;;;;;5051914;28;20517;-65
2021/11/09 00:45:38;;;;;;;23.30;14.73;;;1.80;99.90;;;;;;5052319;28;21000;-64
2021/11/09 00:48:06;;;;;;;23.57;13.97;;;1.70;99.90;;;;;;5051492;28;20490;-66
2021/11/09 00:50:35;;;;;;;18.80;14.13;;;1.70;99.90;;;;;;5052419;28;20454;-65
2021/11/09 00:53:03;;;;;;;20.60;12.73;;;1.70;99.90;;;;;;5051738;28;20448;-65
2021/11/09 00:55:30;;;;;;;17.60;12.30;;;1.70;99.90;;;;;;5052019;28;21041;-65
2021/11/09 00:57:57;;;;;;;19.37;13.23;;;1.70;99.90;;;;;;5051140;28;20454;-65
2021/11/09 01:00:27;;;;;;;20.70;14.07;;;1.70;99.90;;;;;;5051896;28;20463;-65
2021/11/09 01:02:55;;;;;;;17.50;12.63;;;1.70;99.90;;;;;;5051721;28;20458;-65
2021/11/09 01:05:26;;;;;;;21.53;15.50;;;1.70;99.90;;;;;;5052166;28;20470;-65
2021/11/09 01:07:57;;;;;;;24.60;14.80;;;1.70;99.90;;;;;;5050785;28;20585;-66
2021/11/09 01:10:26;;;;;;;26.47;14.20;;;1.80;99.90;;;;;;5052365;28;20205;-65
2021/11/09 01:12:53;;;;;;;24.30;14.13;;;1.90;99.90;;;;;;5051399;28;20451;-66
2021/11/09 01:15:20;;;;;;;17.80;13.07;;;1.90;99.90;;;;;;5051437;28;20985;-66
2021/11/09 01:17:47;;;;;;;17.25;12.15;;;1.90;99.90;;;;;;5050814;28;20936;-65
2021/11/09 01:20:18;;;;;;;19.30;14.53;;;2.00;99.90;;;;;;5051669;28;20618;-65
2021/11/09 01:22:47;;;;;;;17.30;12.80;;;2.00;99.90;;;;;;5051030;28;20455;-65
2021/11/09 01:25:15;;;;;;;19.03;13.93;;;2.10;99.90;;;;;;5051354;28;20479;-66
2021/11/09 01:27:42;;;;;;;16.83;13.40;;;2.20;99.90;;;;;;5050430;28;20485;-67
2021/11/09 01:30:10;;;;;;;18.33;11.73;;;2.20;99.90;;;;;;5051388;28;20206;-65
2021/11/09 01:32:37;;;;;;;20.50;12.40;;;2.30;99.90;;;;;;5050927;28;20442;-66
2021/11/09 01:35:05;;;;;;;19.73;14.68;;;2.30;99.90;;;;;;5051177;28;20445;-66
2021/11/09 01:37:32;;;;;;;20.63;14.00;;;2.40;99.90;;;;;;5050316;28;20216;-66
2021/11/09 01:40:00;;;;;;;20.50;12.13;;;2.50;99.90;;;;;;5050904;28;20522;-65
2021/11/09 01:42:28;;;;;;;19.30;14.50;;;2.50;99.90;;;;;;5050972;28;20829;-66
2021/11/09 01:44:55;;;;;;;18.70;13.70;;;2.60;99.90;;;;;;5051014;28;20803;-65
2021/11/09 01:47:22;;;;;;;14.77;12.60;;;2.60;99.90;;;;;;5050387;28;20452;-64
2021/11/09 01:49:49;;;;;;;19.48;13.15;;;2.60;99.90;;;;;;5050691;28;20486;-64
2021/11/09 01:52:16;;;;;;;20.67;13.60;;;2.60;99.90;;;;;;5050925;28;20212;-65
2021/11/09 01:54:43;;;;;;;21.50;13.20;;;2.70;99.90;;;;;;5051022;28;20440;-67
2021/11/09 01:57:10;;;;;;;19.53;14.23;;;2.70;99.90;;;;;;5050272;28;20464;-65
2021/11/09 01:59:38;;;;;;;20.40;13.43;;;2.70;99.90;;;;;;5050939;28;20439;-65
2021/11/09 02:02:05;;;;;;;25.60;14.40;;;2.80;99.90;;;;;;5050802;28;20550;-65
2021/11/09 02:04:32;;;;;;;19.43;12.93;;;2.80;99.90;;;;;;5051127;28;20579;-65
2021/11/09 02:06:59;;;;;;;21.77;15.40;;;2.90;99.90;;;;;;5050366;28;20501;-65
2021/11/09 02:09:27;;;;;;;21.60;14.50;;;2.90;99.90;;;;;;5050848;28;20480;-65
2021/11/09 02:11:54;;;;;;;22.83;13.43;;;2.90;99.90;;;;;;5050571;28;20449;-66
2021/11/09 02:14:20;;;;;;;22.00;13.60;;;2.90;99.90;;;;;;5050620;28;20444;-67
2021/11/09 02:16:51;;;;;;;18.20;12.47;;;2.90;99.90;;;;;;5049737;28;20491;-68
2021/11/09 02:19:18;;;;;;;14.53;12.80;;;2.90;99.90;;;;;;5050640;28;21073;-67
2021/11/09 02:21:46;;;;;;;19.37;14.43;;;2.80;99.90;;;;;;5050423;28;20448;-65
2021/11/09 02:24:13;;;;;;;19.17;14.20;;;2.80;99.90;;;;;;5050556;28;20452;-65
2021/11/09 02:26:40;;;;;;;24.00;13.40;;;2.80;99.90;;;;;;5049004;28;20236;-67
2021/11/09 02:29:08;;;;;;;25.30;14.53;;;2.80;99.90;;;;;;5050213;28;20475;-64
2021/11/09 02:31:34;;;;;;;20.07;13.43;;;2.90;99.90;;;;;;5049658;28;20539;-66
2021/11/09 02:34:02;;;;;;;17.53;14.10;;;3.00;99.90;;;;;;5050175;28;20957;-65
2021/11/09 02:36:28;;;;;;;22.27;14.87;;;2.90;99.90;;;;;;5049036;28;20997;-66
2021/11/09 02:38:57;;;;;;;22.70;14.37;;;3.00;99.90;;;;;;5050221;28;20452;-65
2021/11/09 02:41:23;;;;;;;20.90;13.20;;;3.10;99.90;;;;;;5049698;28;20456;-65
2021/11/09 02:43:51;;;;;;;20.20;13.27;;;3.20;99.90;;;;;;5050006;28;20452;-67
2021/11/09 02:49:11;;;;;;;19.50;12.93;;;3.30;99.90;;;;;;5042949;28;20475;-66
2021/11/09 02:51:41;;;;;;;21.27;12.87;;;3.30;99.90;;;;;;5049546;28;20452;-66
2021/11/09 02:54:15;;;;;;;16.90;12.77;;;3.30;99.90;;;;;;5050020;28;20950;-66
2021/11/09 02:56:46;;;;;;;18.80;13.00;;;3.20;99.90;;;;;;5049066;28;20474;-67
2021/11/09 02:59:26;;;;;;;20.83;13.73;;;3.30;99.90;;;;;;5049830;28;20898;-66
2021/11/09 03:01:58;;;;;;;17.40;12.97;;;3.40;99.90;;;;;;5049352;28;20487;-66
2021/11/09 03:04:35;;;;;;;13.33;11.20;;;3.40;99.90;;;;;;5049722;28;20448;-66
2021/11/09 03:07:06;;;;;;;14.27;10.63;;;3.40;99.90;;;;;;5048880;28;20545;-65
2021/11/09 03:09:41;;;;;;;17.60;12.83;;;3.30;99.90;;;;;;5049946;28;20482;-65
2021/11/09 03:12:10;;;;;;;16.43;11.43;;;3.20;99.90;;;;;;5049452;28;20513;-65
2021/11/09 03:14:38;;;;;;;17.83;13.60;;;3.10;99.90;;;;;;5049776;28;20452;-65
2021/11/09 03:17:17;;;;;;;16.30;13.80;;;3.10;99.90;;;;;;5048685;28;20482;-67
2021/11/09 03:19:47;;;;;;;19.30;13.43;;;3.10;99.90;;;;;;5049990;28;20867;-66
2021/11/09 03:44:22;;;;;;;17.02;12.13;;;2.70;99.90;;;;;;5053991;28;20427;-65
2021/11/09 03:46:52;;;;;;;18.00;11.73;;;2.60;99.90;;;;;;5052752;28;20225;-66
2021/11/09 03:49:21;;;;;;;22.23;12.13;;;2.60;99.90;;;;;;5052974;28;20484;-65
2021/11/09 03:51:49;;;;;;;17.80;13.33;;;2.50;99.90;;;;;;5053018;28;20538;-64
2021/11/09 03:54:18;;;;;;;18.33;13.20;;;2.50;99.90;;;;;;5053121;28;20531;-66
2021/11/09 03:56:49;;;;;;;17.67;14.13;;;2.30;99.90;;;;;;5052143;28;20518;-65
2021/11/09 03:59:19;;;;;;;20.57;13.53;;;2.20;99.90;;;;;;5053214;28;20440;-66
2021/11/09 04:02:01;;;;;;;17.30;13.70;;;2.20;99.90;;;;;;5052846;28;20505;-66
2021/11/09 04:04:35;;;;;;;18.80;13.70;;;2.10;99.90;;;;;;5052862;28;20440;-65
2021/11/09 04:07:06;;;;;;;20.00;14.63;;;2.10;99.90;;;;;;5052158;28;20481;-66
2021/11/09 04:09:45;;;;;;;18.63;13.03;;;2.10;99.90;;;;;;5052632;28;20495;-65
2021/11/09 04:12:25;;;;;;;21.00;13.60;;;2.10;99.90;;;;;;5052746;28;20451;-67
2021/11/09 04:14:56;;;;;;;21.70;12.83;;;2.00;99.90;;;;;;5052718;28;20831;-66
2021/11/09 04:17:32;;;;;;;23.13;14.63;;;1.90;99.90;;;;;;5052089;28;20447;-65
2021/11/09 04:20:05;;;;;;;17.37;14.07;;;1.80;99.90;;;;;;5052545;28;20453;-66
2021/11/09 04:25:40;;;;;;;21.93;13.53;;;1.70;99.90;;;;;;5052212;28;20456;-65
2021/11/09 04:28:15;;;;;;;24.80;13.57;;;1.70;99.90;;;;;;5051976;28;20443;-65
2021/11/09 04:30:58;;;;;;;24.70;15.30;;;1.60;99.90;;;;;;5052761;28;20455;-65
2021/11/09 04:53:34;;;;;;;22.17;14.60;;;1.30;99.90;;;;;;5051868;28;20461;-66
2021/11/09 05:01:38;;;;;;;22.42;13.10;;;1.50;99.90;;;;;;5051324;28;20523;-65
2021/11/09 05:09:36;;;;;;;19.27;13.17;;;1.50;99.90;;;;;;5051753;28;20470;-67
2021/11/09 05:12:03;;;;;;;21.20;13.00;;;1.40;99.90;;;;;;5051383;28;20444;-66
2021/11/09 05:14:31;;;;;;;19.50;12.77;;;1.30;99.90;;;;;;5051777;28;20519;-66
2021/11/09 05:17:00;;;;;;;21.13;11.80;;;1.20;99.90;;;;;;5050828;28;20472;-66
2021/11/09 05:19:27;;;;;;;17.47;11.37;;;1.20;99.90;;;;;;5051652;28;20813;-66
2021/11/09 05:21:55;;;;;;;22.57;12.87;;;1.20;99.90;;;;;;5051092;28;20470;-66
2021/11/09 05:24:21;;;;;;;15.97;12.33;;;1.10;99.90;;;;;;5051244;28;21032;-65
2021/11/09 05:26:49;;;;;;;19.23;12.43;;;1.10;99.90;;;;;;5050836;28;20502;-66
2021/11/09 05:29:16;;;;;;;39.13;16.30;;;1.10;99.90;;;;;;5051367;28;20483;-65
2021/11/09 05:31:43;;;;;;;24.55;14.50;;;1.10;99.90;;;;;;5048697;28;20534;-69
2021/11/09 05:34:12;;;;;;;23.48;14.30;;;1.10;99.90;;;;;;5051221;28;20211;-67
2021/11/09 05:36:41;;;;;;;19.53;12.70;;;1.00;99.90;;;;;;5049968;28;20572;-67
2021/11/09 05:39:14;;;;;;;23.40;13.57;;;1.00;99.90;;;;;;5051169;28;20440;-66
2021/11/09 05:41:43;;;;;;;15.90;11.50;;;1.10;99.90;;;;;;5050727;28;21191;-66
2021/11/09 05:44:10;;;;;;;21.02;12.48;;;1.10;99.90;;;;;;5051417;28;20482;-67
2021/11/09 05:46:39;;;;;;;14.77;11.87;;;1.10;99.90;;;;;;5050467;28;20261;-66
2021/11/09 05:49:06;;;;;;;19.13;13.10;;;1.00;99.90;;;;;;5051133;28;20476;-68
2021/11/09 05:51:36;;;;;;;15.77;12.23;;;1.00;99.90;;;;;;5050485;28;20450;-67
2021/11/09 05:54:03;;;;;;;20.70;13.50;;;1.00;99.90;;;;;;5051068;28;20730;-66
2021/11/09 05:56:30;;;;;;;22.60;14.70;;;1.00;99.90;;;;;;5050100;28;20821;-68
2021/11/09 05:58:58;;;;;;;20.87;14.80;;;1.10;99.90;;;;;;5051325;28;20451;-65
2021/11/09 06:01:25;;;;;;;18.83;12.93;;;1.00;99.90;;;;;;5049590;28;20459;-66
2021/11/09 06:03:52;;;;;;;21.10;13.43;;;1.00;99.90;;;;;;5050597;28;20450;-66
2021/11/09 06:06:19;;;;;;;20.73;13.93;;;1.00;99.90;;;;;;5049273;28;20547;-66
2021/11/09 06:08:49;;;;;;;18.00;13.17;;;1.00;99.90;;;;;;5049211;28;20831;-65
2021/11/09 06:11:17;;;;;;;17.30;13.60;;;0.90;99.90;;;;;;5050424;28;20468;-65
2021/11/09 06:13:44;;;;;;;18.08;13.65;;;0.80;99.90;;;;;;5050244;28;20448;-66
2021/11/09 06:16:11;;;;;;;17.47;13.77;;;0.80;99.90;;;;;;5050193;28;20253;-66
2021/11/09 06:18:38;;;;;;;19.30;14.30;;;0.70;99.90;;;;;;5049854;28;20828;-66
2021/11/09 06:21:06;;;;;;;19.10;12.30;;;0.70;99.90;;;;;;5050319;28;20440;-66
2021/11/09 06:23:33;;;;;;;18.10;12.80;;;0.70;99.90;;;;;;5049417;28;20522;-65
2021/11/09 06:26:01;;;;;;;17.20;12.37;;;0.80;99.90;;;;;;5049588;28;20470;-67
2021/11/09 06:28:29;;;;;;;48.97;17.40;;;0.80;99.90;;;;;;5049416;28;20462;-64
2021/11/09 06:30:56;;;;;;;18.00;12.17;;;0.80;99.90;;;;;;5050150;28;20591;-64
2021/11/09 06:33:23;;;;;;;53.10;17.50;;;0.70;99.90;;;;;;5049719;28;20451;-64
2021/11/09 06:35:51;;;;;;;34.55;14.73;;;0.70;99.90;;;;;;5050079;28;20462;-65
2021/11/09 06:38:17;;;;;;;37.83;13.80;;;0.70;99.90;;;;;;5048853;28;20219;-65
2021/11/09 06:40:45;;;;;;;15.53;12.07;;;0.70;99.90;;;;;;5050244;28;20435;-63
2021/11/09 06:43:13;;;;;;;14.77;11.03;;;0.80;99.90;;;;;;5049693;28;20448;-64
2021/11/09 06:45:40;;;;;;;16.50;12.03;;;0.80;99.90;;;;;;5049893;28;20470;-64
2021/11/09 06:48:07;;;;;;;16.60;12.93;;;0.80;99.90;;;;;;5049203;28;20444;-65
2021/11/09 06:50:34;;;;;;;17.30;12.43;;;0.90;99.90;;;;;;5049803;28;20490;-64
2021/11/09 06:53:01;;;;;;;15.83;12.07;;;0.80;99.90;;;;;;5049457;28;20501;-65
2021/11/09 06:55:28;;;;;;;18.30;13.70;;;0.80;99.90;;;;;;5049752;28;20470;-64
2021/11/09 06:57:55;;;;;;;14.40;12.70;;;0.90;99.90;;;;;;5048945;28;20968;-63
2021/11/09 07:00:24;;;;;;;17.27;13.00;;;0.90;99.90;;;;;;5049445;28;20455;-64
2021/11/09 07:02:52;;;;;;;20.10;12.47;;;0.80;99.90;;;;;;5049100;28;20976;-65
2021/11/09 07:05:19;;;;;;;16.20;12.50;;;0.90;99.90;;;;;;5049733;28;20472;-64
2021/11/09 07:07:46;;;;;;;20.57;14.83;;;0.90;99.90;;;;;;5049124;28;20447;-64
2021/11/09 07:10:13;;;;;;;24.57;15.73;;;1.00;99.90;;;;;;5049626;28;20487;-64
2021/11/09 07:12:40;;;;;;;20.88;13.25;;;1.10;99.90;;;;;;5049095;28;20440;-62
2021/11/09 07:15:09;;;;;;;45.60;17.73;;;1.10;99.90;;;;;;5049877;28;20225;-65
2021/11/09 07:17:39;;;;;;;18.23;14.20;;;1.20;99.90;;;;;;5049109;28;20451;-63
2021/11/09 07:20:08;;;;;;;20.77;14.27;;;1.20;99.90;;;;;;5050103;28;20495;-64
2021/11/09 07:22:35;;;;;;;18.93;16.20;;;1.30;99.90;;;;;;5050032;28;20515;-64
2021/11/09 07:25:02;;;;;;;22.03;14.73;;;1.30;99.90;;;;;;5049696;28;20801;-63
2021/11/09 07:27:30;;;;;;;26.63;14.70;;;1.50;99.90;;;;;;5049195;28;20513;-64
2021/11/09 07:29:57;;;;;;;17.23;14.50;;;1.60;99.90;;;;;;5049710;28;20483;-63
2021/11/09 07:32:25;;;;;;;20.80;13.63;;;1.70;99.90;;;;;;5049323;28;20447;-65
2021/11/09 07:34:53;;;;;;;28.50;17.60;;;1.80;99.90;;;;;;5049304;28;20443;-65
2021/11/09 07:37:20;;;;;;;24.23;17.20;;;1.80;99.90;;;;;;5048766;28;20444;-64
2021/11/09 07:39:47;;;;;;;26.80;16.73;;;1.80;99.90;;;;;;5049362;28;20889;-62
2021/11/09 07:42:15;;;;;;;22.60;16.10;;;1.80;99.90;;;;;;5049241;28;20206;-65
2021/11/09 07:44:43;;;;;;;22.27;16.93;;;1.90;99.90;;;;;;5049490;28;20444;-65
2021/11/09 07:47:09;;;;;;;24.10;16.27;;;2.00;99.90;;;;;;5048598;28;20470;-64
2021/11/09 07:49:37;;;;;;;24.90;16.70;;;2.10;99.90;;;;;;5049246;28;20570;-65
2021/11/09 07:52:07;;;;;;;22.90;16.30;;;2.10;99.90;;;;;;5048895;28;20506;-62
2021/11/09 07:54:36;;;;;;;22.30;15.00;;;2.20;99.90;;;;;;5049305;28;21042;-64
2021/11/09 07:57:07;;;;;;;21.73;15.45;;;2.30;99.90;;;;;;5048242;28;20502;-65
2021/11/09 07:59:38;;;;;;;18.50;14.10;;;2.30;99.90;;;;;;5049128;28;20260;-62
2021/11/09 08:02:06;;;;;;;25.60;15.70;;;2.40;99.90;;;;;;5048858;28;20450;-64
2021/11/09 08:04:42;;;;;;;19.23;14.90;;;2.50;99.90;;;;;;5049046;28;20447;-65
2021/11/09 08:07:13;;;;;;;18.83;14.20;;;2.60;99.90;;;;;;5048328;28;20872;-64
2021/11/09 08:09:40;;;;;;;23.10;15.10;;;2.70;99.90;;;;;;5049271;28;20240;-64
2021/11/09 08:12:08;;;;;;;21.23;13.93;;;2.80;99.90;;;;;;5048869;28;20448;-64
2021/11/09 08:14:35;;;;;;;22.03;14.30;;;3.00;99.90;;;;;;5048981;28;20527;-64
2021/11/09 08:17:04;;;;;;;24.20;14.90;;;3.10;99.90;;;;;;5048588;28;20973;-64
2021/11/09 08:19:31;;;;;;;20.60;13.27;;;3.30;99.90;;;;;;5048580;28;20480;-65
2021/11/09 08:21:59;;;;;;;20.20;14.20;;;3.50;99.90;;;;;;5048798;28;20530;-64
2021/11/09 08:24:28;;;;;;;19.10;15.40;;;3.60;99.90;;;;;;5049213;28;20446;-64
2021/11/09 08:26:56;;;;;;;20.93;14.93;;;3.80;99.90;;;;;;5051879;28;20224;-65
2021/11/09 08:29:26;;;;;;;19.07;13.70;;;3.90;99.90;;;;;;5052382;28;20948;-63
2021/11/09 08:31:54;;;;;;;17.00;12.43;;;4.10;99.90;;;;;;5051962;28;20448;-64
2021/11/09 08:34:21;;;;;;;17.80;12.80;;;4.30;99.90;;;;;;5052584;28;20444;-64
2021/11/09 08:36:49;;;;;;;19.37;14.23;;;4.50;99.90;;;;;;5051751;28;20235;-64
2021/11/09 08:39:21;;;;;;;22.40;13.40;;;4.50;99.90;;;;;;5052254;28;20547;-65
2021/11/09 08:41:56;;;;;;;16.00;13.10;;;4.40;99.90;;;;;;5051957;28;20458;-65
2021/11/09 08:44:26;;;;;;;21.80;11.27;;;4.60;99.90;;;;;;5052048;28;20443;-64
2021/11/09 08:46:55;;;;;;;14.80;11.23;;;4.60;99.90;;;;;;5051629;28;20499;-65
2021/11/09 08:49:24;;;;;;;15.03;11.17;;;4.60;99.90;;;;;;5052124;28;20480;-64
2021/11/09 08:51:54;;;;;;;12.97;10.87;;;4.70;99.90;;;;;;5051693;28;20440;-64
2021/11/09 08:54:26;;;;;;;12.33;11.03;;;4.70;99.90;;;;;;5052029;28;20444;-64
2021/11/09 08:57:06;;;;;;;13.77;10.30;;;4.70;99.90;;;;;;5051012;28;20460;-64
2021/11/09 09:05:04;;;;;;;19.70;11.10;;;4.80;99.90;;;;;;5051750;28;20929;-64
2021/11/09 09:07:33;;;;;;;13.82;11.43;;;5.00;99.90;;;;;;5050939;28;20531;-61
2021/11/09 09:10:00;;;;;;;18.30;10.73;;;5.00;99.90;;;;;;5051717;28;20221;-64
2021/11/09 09:12:30;;;;;;;16.10;11.60;;;5.10;99.90;;;;;;5051179;28;20880;-63
2021/11/09 09:14:58;;;;;;;18.07;11.83;;;5.20;99.90;;;;;;5043141;28;20477;-64
2021/11/09 09:17:26;;;;;;;14.17;11.50;;;5.30;99.90;;;;;;5050567;28;20444;-64
2021/11/09 09:19:57;;;;;;;14.17;11.33;;;5.50;99.90;;;;;;5051038;28;21017;-65
2021/11/09 09:22:28;;;;;;;14.13;10.70;;;5.70;99.90;;;;;;5051342;28;20539;-65
2021/11/09 09:25:23;;;;;;;13.68;9.60;;;5.90;99.90;;;;;;5051479;28;20547;-63
2021/11/09 09:28:19;;;;;;;13.60;10.07;;;6.00;99.90;;;;;;5050593;28;20687;-64
2021/11/09 09:53:00;;;;;;;10.23;8.37;;;9.30;99.90;;;;;;5038300;28;20486;-65
2021/11/09 09:55:39;;;;;;;11.20;7.57;;;9.90;99.90;;;;;;5037452;28;20471;-62
2021/11/09 09:58:08;;;;;;;11.63;7.73;;;10.40;99.90;;;;;;5036923;28;20484;-64
2021/11/09 10:00:37;;;;;;;10.87;7.43;;;10.30;99.90;;;;;;5037355;28;20476;-64
2021/11/09 10:03:05;;;;;;;10.68;7.50;;;10.20;99.90;;;;;;5038316;28;20942;-64
2021/11/09 10:05:34;;;;;;;11.15;7.93;;;10.40;99.90;;;;;;5036909;28;20268;-65
2021/11/09 10:08:10;;;;;;;13.37;7.00;;;10.60;99.90;;;;;;5036556;28;20728;-63
2021/11/09 10:10:37;;;;;;;8.63;7.03;;;10.90;99.90;;;;;;5037741;28;20496;-64
2021/11/09 10:13:08;;;;;;;10.27;7.20;;;11.00;99.90;;;;;;5038871;28;20452;-64
2021/11/09 10:15:38;;;;;;;7.93;6.67;;;11.60;99.90;;;;;;5037464;28;20476;-64
2021/11/09 10:18:07;;;;;;;10.87;7.30;;;11.80;99.90;;;;;;5046375;28;20458;-64
2021/11/09 10:20:40;;;;;;;8.70;6.20;;;11.80;99.90;;;;;;5051616;28;20440;-65
2021/11/09 10:23:12;;;;;;;10.80;7.07;;;12.10;99.90;;;;;;5049939;28;20470;-65
2021/11/09 10:25:39;;;;;;;9.77;6.33;;;12.70;99.90;;;;;;5050244;28;20841;-65
2021/11/09 10:28:08;;;;;;;8.80;6.30;;;13.50;99.90;;;;;;5049372;28;20455;-65
2021/11/09 10:30:39;;;;;;;9.90;6.30;;;14.30;99.90;;;;;;5050045;28;20482;-65
2021/11/09 10:33:06;;;;;;;7.80;6.10;;;14.70;99.90;;;;;;5050104;28;20534;-65
2021/11/09 10:35:34;;;;;;;9.27;6.35;;;15.30;99.90;;;;;;5050380;28;20482;-64
2021/11/09 10:38:03;;;;;;;7.00;5.57;;;15.80;99.90;;;;;;5048970;28;20197;-65
2021/11/09 10:40:32;;;;;;;8.07;6.27;;;16.30;99.90;;;;;;5050369;28;20509;-65
2021/11/09 10:43:01;;;;;;;6.87;5.63;;;16.70;99.90;;;;;;5040926;28;20499;-65
2021/11/09 10:45:33;;;;;;;7.77;4.53;;;17.30;99.90;;;;;;5036714;28;20460;-63
2021/11/09 10:48:03;;;;;;;10.37;4.13;;;17.60;97.50;;;;;;5047268;28;20452;-65
2021/11/09 10:50:34;;;;;;;5.83;3.70;;;17.30;96.20;;;;;;5046397;28;21020;-65
2021/11/09 10:53:10;;;;;;;6.00;3.60;;;17.20;96.80;;;;;;5048592;28;21156;-64
2021/11/09 10:55:43;;;;;;;9.70;4.70;;;17.50;96.00;;;;;;5048380;28;20537;-65
2021/11/09 10:58:23;;;;;;;4.93;3.40;;;17.60;94.70;;;;;;5047922;28;20444;-65
2021/11/09 11:03:57;;;;;;;6.30;3.70;;;16.40;95.50;;;;;;5028428;28;20205;-63
2021/11/09 11:06:26;;;;;;;7.53;3.10;;;15.40;96.80;;;;;;5045599;28;20551;-65
2021/11/09 11:08:54;;;;;;;7.07;4.00;;;14.60;97.80;;;;;;5048520;28;20444;-64
2021/11/09 11:11:25;;;;;;;5.60;3.47;;;13.80;98.60;;;;;;5048338;28;20476;-64
2021/11/09 11:13:54;;;;;;;5.20;3.50;;;13.20;99.90;;;;;;5048324;28;20795;-64
2021/11/09 11:16:25;;;;;;;7.47;3.40;;;12.60;99.90;;;;;;5047309;28;20463;-64
2021/11/09 11:18:55;;;;;;;6.23;3.50;;;12.20;99.90;;;;;;5048586;28;20483;-64
2021/11/09 11:21:24;;;;;;;5.97;3.63;;;11.80;99.90;;;;;;5048227;28;20435;-64
2021/11/09 11:23:51;;;;;;;5.63;4.13;;;11.50;99.90;;;;;;5048374;28;20444;-64
2021/11/09 11:26:20;;;;;;;6.57;3.77;;;11.40;99.90;;;;;;5047601;28;21036;-64
2021/11/09 11:28:50;;;;;;;8.77;3.97;;;11.20;99.90;;;;;;5048511;28;20440;-64
2021/11/09 11:31:17;;;;;;;7.83;3.47;;;11.20;99.90;;;;;;5042134;28;20485;-64
2021/11/09 11:33:45;;;;;;;8.57;3.37;;;11.10;99.90;;;;;;5048080;28;20456;-63
2021/11/09 11:36:13;;;;;;;7.27;3.53;;;11.00;99.90;;;;;;5047623;28;20452;-61
2021/11/09 11:38:43;;;;;;;8.50;3.63;;;11.00;99.90;;;;;;5047873;28;20451;-63
2021/11/09 11:41:10;;;;;;;7.00;3.57;;;10.80;99.90;;;;;;5047844;28;20926;-64
2021/11/09 11:43:57;;;;;;;6.80;3.30;;;10.80;99.90;;;;;;5048473;28;20455;-63
2021/11/09 11:46:45;;;;;;;7.03;3.00;;;10.80;99.90;;;;;;5047270;28;20567;-64
2021/11/09 11:49:14;;;;;;;6.90;3.00;;;10.70;99.90;;;;;;5047956;28;20821;-65
2021/11/09 11:52:07;;;;;;;7.90;3.77;;;10.70;99.90;;;;;;5046552;28;20483;-64
2021/11/09 11:55:04;;;;;;;5.53;2.60;;;10.70;99.90;;;;;;5041364;28;20448;-65
2021/11/09 11:57:49;;;;;;;6.03;2.50;;;10.70;99.90;;;;;;5044055;28;20444;-64
2021/11/09 12:00:43;;;;;;;6.70;2.90;;;10.70;99.90;;;;;;5043213;28;20463;-64
2021/11/09 12:03:48;;;;;;;5.83;2.90;;;10.70;99.90;;;;;;5049541;28;20851;-64
2021/11/09 12:06:28;;;;;;;8.88;3.05;;;10.70;99.90;;;;;;5047552;28;20535;-62
2021/11/09 12:08:58;;;;;;;7.67;3.13;;;10.70;99.90;;;;;;5049618;28;20246;-65
2021/11/09 12:11:35;;;;;;;4.68;2.63;;;10.70;99.90;;;;;;5047181;28;20480;-63
2021/11/09 12:14:05;;;;;;;5.38;3.08;;;10.80;99.90;;;;;;5048766;28;20604;-64
2021/11/09 12:16:53;;;;;;;5.43;2.90;;;10.80;99.90;;;;;;5045068;28;20214;-64
2021/11/09 12:19:56;;;;;;;8.73;3.67;;;10.80;99.90;;;;;;5044316;28;20436;-64
2021/11/09 12:22:26;;;;;;;9.73;2.80;;;10.80;99.90;;;;;;5051069;28;20465;-64
2021/11/09 12:24:58;;;;;;;5.33;2.50;;;10.80;99.90;;;;;;5051257;28;20454;-64
2021/11/09 12:27:29;;;;;;;4.00;2.50;;;10.80;99.90;;;;;;5050802;28;20439;-65
2021/11/09 12:29:58;;;;;;;6.70;3.30;;;10.90;99.90;;;;;;5051379;28;20807;-65
2021/11/09 12:32:31;;;;;;;6.33;2.43;;;10.90;99.90;;;;;;5051178;28;20515;-64
2021/11/09 12:35:04;;;;;;;7.57;3.00;;;10.90;99.90;;;;;;5051147;28;20531;-64
2021/11/09 12:37:33;;;;;;;4.43;2.50;;;10.90;99.90;;;;;;5050639;28;20440;-65
2021/11/09 12:40:31;;;;;;;4.23;2.17;;;10.90;99.90;;;;;;5051481;28;20447;-64
2021/11/09 12:43:08;;;;;;;6.73;2.57;;;10.90;99.90;;;;;;5050687;28;20436;-64
2021/11/09 12:45:37;;;;;;;5.43;2.40;;;10.90;99.90;;;;;;5050564;28;20838;-64
2021/11/09 12:48:05;;;;;;;5.43;2.60;;;10.90;99.90;;;;;;5050422;28;20945;-64
2021/11/09 12:50:34;;;;;;;8.47;2.80;;;10.90;99.90;;;;;;5050621;28;20454;-65
2021/11/09 12:53:07;;;;;;;5.40;2.80;;;10.90;99.90;;;;;;5050587;28;20448;-64
2021/11/09 12:55:36;;;;;;;4.00;2.10;;;10.80;99.90;;;;;;5050807;28;20464;-65
2021/11/09 12:58:17;;;;;;;5.53;2.47;;;10.70;99.90;;;;;;5049966;28;20450;-65
2021/11/09 13:00:49;;;;;;;3.53;2.40;;;10.70;99.90;;;;;;5050749;28;20547;-64
2021/11/09 13:03:30;;;;;;;7.23;3.20;;;10.70;99.90;;;;;;5050800;28;20467;-64
2021/11/09 13:06:05;;;;;;;5.57;2.50;;;10.70;99.90;;;;;;5046243;28;21007;-64
2021/11/09 13:08:42;;;;;;;6.40;2.93;;;10.60;99.90;;;;;;5046578;28;20547;-65
2021/11/09 13:11:30;;;;;;;6.07;2.50;;;10.60;99.90;;;;;;5045358;28;20494;-65
2021/11/09 13:14:04;;;;;;;5.50;2.53;;;10.60;99.90;;;;;;5047848;28;20478;-65
2021/11/09 13:16:30;;;;;;;4.67;2.93;;;10.60;99.90;;;;;;5047217;28;20460;-64
2021/11/09 13:19:03;;;;;;;4.30;2.60;;;10.60;99.90;;;;;;5039227;28;20445;-62
2021/11/09 13:21:30;;;;;;;5.00;3.27;;;10.60;99.90;;;;;;5042274;28;20467;-66
2021/11/09 13:23:57;;;;;;;5.00;2.70;;;10.50;99.90;;;;;;5042465;28;20445;-65
2021/11/09 13:26:24;;;;;;;6.40;2.57;;;10.50;99.90;;;;;;5039878;28;20471;-62
2021/11/09 13:28:53;;;;;;;5.60;2.80;;;10.50;99.90;;;;;;5041696;28;20455;-61
2021/11/09 13:31:20;;;;;;;8.37;2.70;;;10.60;99.90;;;;;;5040510;28;20487;-65
2021/11/09 13:33:49;;;;;;;5.43;2.33;;;10.60;99.90;;;;;;5041911;28;20449;-62
2021/11/09 13:36:19;;;;;;;6.30;3.10;;;10.60;99.90;;;;;;5038074;28;20515;-65
2021/11/09 13:38:46;;;;;;;4.13;2.50;;;10.60;99.90;;;;;;5039355;28;20484;-65
2021/11/09 13:41:17;;;;;;;8.53;2.93;;;10.50;99.90;;;;;;5041785;28;20453;-65
2021/11/09 13:43:49;;;;;;;4.55;2.50;;;10.50;99.90;;;;;;5039840;28;20444;-65
2021/11/09 13:46:20;;;;;;;4.20;2.53;;;10.50;99.90;;;;;;5039513;28;20230;-66
2021/11/09 13:48:50;;;;;;;4.57;3.00;;;10.40;99.90;;;;;;5039822;28;20448;-66
2021/11/09 13:51:24;;;;;;;5.95;2.45;;;10.40;99.90;;;;;;5045145;28;20480;-64
2021/11/09 13:53:58;;;;;;;5.37;2.50;;;10.40;99.90;;;;;;5050844;28;20607;-63
2021/11/09 13:56:26;;;;;;;3.97;2.50;;;10.40;99.90;;;;;;5050275;28;20579;-64
2021/11/09 13:58:55;;;;;;;6.35;2.65;;;10.40;99.90;;;;;;5051023;28;20465;-65
2021/11/09 14:01:36;;;;;;;7.10;3.27;;;10.40;99.90;;;;;;5050370;28;20233;-62
2021/11/09 14:04:10;;;;;;;4.70;2.80;;;10.30;99.90;;;;;;5050396;28;20479;-66
2021/11/09 14:15:26;;;;;;;6.60;2.50;;;10.30;99.90;;;;;;5035502;28;20455;-65
2021/11/09 14:17:55;;;;;;;4.63;2.00;;;10.20;99.90;;;;;;5048484;28;20471;-67
2021/11/09 14:20:24;;;;;;;5.18;2.65;;;10.20;99.90;;;;;;5049219;28;20432;-67
2021/11/09 14:23:00;;;;;;;4.20;1.80;;;10.10;99.90;;;;;;5048669;28;20201;-63
2021/11/09 14:25:28;;;;;;;9.10;3.33;;;10.10;99.90;;;;;;5048294;28;20853;-66
2021/11/09 14:27:55;;;;;;;8.20;3.20;;;10.20;99.90;;;;;;5048677;28;20209;-64
2021/11/09 14:30:26;;;;;;;4.10;2.73;;;10.20;99.90;;;;;;5050249;28;20297;-65
2021/11/09 14:33:05;;;;;;;5.60;2.40;;;10.20;99.90;;;;;;5043133;28;20490;-65
2021/11/09 14:35:34;;;;;;;4.80;2.60;;;10.10;99.90;;;;;;5049587;28;20581;-63